sensor_id;sensor_type;location;lat;lon;timestamp;P1;durP1;ratioP1;P2;durP2;ratioP2
3155;SDS011;1588;50.892;7.082;2022-09-09T00:00:53;1.23;;;1.10;;
3155;SDS011;1588;50.892;7.082;2022-09-09T00:06:12;2.43;;;1.10;;
3155;SDS011;1588;50.892;7.082;2022-09-09T00:11:26;4.23;;;1.23;;
3155;SDS011;1588;50.892;7.082;2022-09-09T00:16:32;2.73;;;1.50;;
3155;SDS011;1588;50.892;7.082;2022-09-09T00:21:55;5.47;;;1.57;;
3155;SDS011;1588;50.892;7.082;2022-09-09T00:27:06;6.20;;;1.57;;
3155;SDS011;1588;50.892;7.082;2022-09-09T00:32:17;4.13;;;1.10;;
3155;SDS011;1588;50.892;7.082;2022-09-09T00:37:20;5.23;;;1.20;;
3155;SDS011;1588;50.892;7.082;2022-09-09T00:42:34;5.80;;;1.20;;
3155;SDS011;1588;50.892;7.082;2022-09-09T00:47:43;6.60;;;1.30;;
3155;SDS011;1588;50.892;7.082;2022-09-09T00:52:49;3.73;;;1.30;;
3155;SDS011;1588;50.892;7.082;2022-09-09T00:58:00;2.27;;;0.93;;
3155;SDS011;1588;50.892;7.082;2022-09-09T01:03:10;7.67;;;1.20;;
3155;SDS011;1588;50.892;7.082;2022-09-09T01:08:28;3.83;;;1.20;;
3155;SDS011;1588;50.892;7.082;2022-09-09T01:13:52;2.87;;;1.23;;
3155;SDS011;1588;50.892;7.082;2022-09-09T01:18:59;6.70;;;1.23;;
3155;SDS011;1588;50.892;7.082;2022-09-09T01:24:20;8.10;;;1.53;;
3155;SDS011;1588;50.892;7.082;2022-09-09T01:29:30;7.90;;;1.83;;
3155;SDS011;1588;50.892;7.082;2022-09-09T01:34:33;1.60;;;1.10;;
3155;SDS011;1588;50.892;7.082;2022-09-09T01:39:40;2.77;;;1.17;;
3155;SDS011;1588;50.892;7.082;2022-09-09T01:44:47;2.70;;;1.03;;
3155;SDS011;1588;50.892;7.082;2022-09-09T01:49:49;5.70;;;1.30;;
3155;SDS011;1588;50.892;7.082;2022-09-09T01:54:58;5.07;;;1.70;;
3155;SDS011;1588;50.892;7.082;2022-09-09T02:00:03;7.83;;;1.60;;
3155;SDS011;1588;50.892;7.082;2022-09-09T02:05:17;1.70;;;1.03;;
3155;SDS011;1588;50.892;7.082;2022-09-09T02:10:28;4.67;;;1.37;;
3155;SDS011;1588;50.892;7.082;2022-09-09T02:15:37;5.03;;;1.30;;
3155;SDS011;1588;50.892;7.082;2022-09-09T02:20:45;5.20;;;1.63;;
3155;SDS011;1588;50.892;7.082;2022-09-09T02:25:50;2.37;;;1.17;;
3155;SDS011;1588;50.892;7.082;2022-09-09T02:30:56;3.43;;;1.47;;
3155;SDS011;1588;50.892;7.082;2022-09-09T02:35:59;4.20;;;1.20;;
3155;SDS011;1588;50.892;7.082;2022-09-09T02:41:04;7.63;;;1.60;;
3155;SDS011;1588;50.892;7.082;2022-09-09T02:46:12;4.80;;;1.27;;
3155;SDS011;1588;50.892;7.082;2022-09-09T02:51:28;1.90;;;1.10;;
3155;SDS011;1588;50.892;7.082;2022-09-09T02:56:38;5.23;;;1.50;;
3155;SDS011;1588;50.892;7.082;2022-09-09T03:01:44;5.30;;;1.20;;
3155;SDS011;1588;50.892;7.082;2022-09-09T03:06:47;4.67;;;1.40;;
3155;SDS011;1588;50.892;7.082;2022-09-09T03:11:49;5.90;;;1.27;;
3155;SDS011;1588;50.892;7.082;2022-09-09T03:16:53;4.80;;;1.50;;
3155;SDS011;1588;50.892;7.082;2022-09-09T03:21:56;4.73;;;1.73;;
3155;SDS011;1588;50.892;7.082;2022-09-09T03:26:59;1.50;;;1.20;;
3155;SDS011;1588;50.892;7.082;2022-09-09T03:32:03;7.27;;;1.60;;
3155;SDS011;1588;50.892;7.082;2022-09-09T03:37:05;8.40;;;1.43;;
3155;SDS011;1588;50.892;7.082;2022-09-09T03:42:07;5.03;;;1.43;;
3155;SDS011;1588;50.892;7.082;2022-09-09T03:47:12;3.27;;;1.20;;
3155;SDS011;1588;50.892;7.082;2022-09-09T03:52:15;10.70;;;1.50;;
3155;SDS011;1588;50.892;7.082;2022-09-09T03:57:19;3.63;;;1.20;;
3155;SDS011;1588;50.892;7.082;2022-09-09T04:02:23;5.10;;;1.40;;
3155;SDS011;1588;50.892;7.082;2022-09-09T04:07:25;6.03;;;1.50;;
3155;SDS011;1588;50.892;7.082;2022-09-09T04:12:28;7.33;;;1.10;;
3155;SDS011;1588;50.892;7.082;2022-09-09T04:17:32;5.87;;;1.30;;
3155;SDS011;1588;50.892;7.082;2022-09-09T04:22:34;1.37;;;1.10;;
3155;SDS011;1588;50.892;7.082;2022-09-09T04:27:36;7.73;;;1.33;;
3155;SDS011;1588;50.892;7.082;2022-09-09T04:32:40;5.90;;;1.50;;
3155;SDS011;1588;50.892;7.082;2022-09-09T04:37:42;11.07;;;1.50;;
3155;SDS011;1588;50.892;7.082;2022-09-09T04:42:45;5.03;;;1.40;;
3155;SDS011;1588;50.892;7.082;2022-09-09T04:47:52;6.17;;;1.70;;
3155;SDS011;1588;50.892;7.082;2022-09-09T04:52:54;3.20;;;1.80;;
3155;SDS011;1588;50.892;7.082;2022-09-09T04:58:03;12.83;;;1.90;;
3155;SDS011;1588;50.892;7.082;2022-09-09T05:03:06;11.10;;;1.93;;
3155;SDS011;1588;50.892;7.082;2022-09-09T05:08:10;25.23;;;2.00;;
3155;SDS011;1588;50.892;7.082;2022-09-09T05:13:13;10.63;;;2.30;;
3155;SDS011;1588;50.892;7.082;2022-09-09T05:18:16;5.33;;;2.00;;
3155;SDS011;1588;50.892;7.082;2022-09-09T05:23:18;15.13;;;2.40;;
3155;SDS011;1588;50.892;7.082;2022-09-09T05:28:33;10.63;;;2.20;;
3155;SDS011;1588;50.892;7.082;2022-09-09T05:33:37;6.63;;;1.60;;
3155;SDS011;1588;50.892;7.082;2022-09-09T05:38:41;6.43;;;1.70;;
3155;SDS011;1588;50.892;7.082;2022-09-09T05:43:44;9.63;;;1.70;;
3155;SDS011;1588;50.892;7.082;2022-09-09T05:48:49;7.90;;;1.90;;
3155;SDS011;1588;50.892;7.082;2022-09-09T05:53:52;24.43;;;2.30;;
3155;SDS011;1588;50.892;7.082;2022-09-09T05:58:56;3.47;;;1.20;;
3155;SDS011;1588;50.892;7.082;2022-09-09T06:04:02;9.60;;;1.73;;
3155;SDS011;1588;50.892;7.082;2022-09-09T06:09:05;8.17;;;1.20;;
3155;SDS011;1588;50.892;7.082;2022-09-09T06:14:10;6.37;;;1.70;;
3155;SDS011;1588;50.892;7.082;2022-09-09T06:19:13;3.37;;;1.30;;
3155;SDS011;1588;50.892;7.082;2022-09-09T06:24:16;5.50;;;1.50;;
3155;SDS011;1588;50.892;7.082;2022-09-09T06:29:19;7.70;;;1.50;;
3155;SDS011;1588;50.892;7.082;2022-09-09T06:34:23;4.80;;;1.60;;
3155;SDS011;1588;50.892;7.082;2022-09-09T06:39:25;2.37;;;1.30;;
3155;SDS011;1588;50.892;7.082;2022-09-09T06:44:27;8.90;;;1.50;;
3155;SDS011;1588;50.892;7.082;2022-09-09T06:49:45;14.60;;;1.80;;
3155;SDS011;1588;50.892;7.082;2022-09-09T06:54:47;7.87;;;1.63;;
3155;SDS011;1588;50.892;7.082;2022-09-09T06:59:50;4.77;;;1.33;;
3155;SDS011;1588;50.892;7.082;2022-09-09T07:04:53;2.80;;;1.60;;
3155;SDS011;1588;50.892;7.082;2022-09-09T07:09:57;5.73;;;1.60;;
3155;SDS011;1588;50.892;7.082;2022-09-09T07:15:00;3.50;;;1.07;;
3155;SDS011;1588;50.892;7.082;2022-09-09T07:20:04;1.63;;;1.07;;
3155;SDS011;1588;50.892;7.082;2022-09-09T07:25:08;8.57;;;1.37;;
3155;SDS011;1588;50.892;7.082;2022-09-09T07:30:11;5.33;;;1.20;;
3155;SDS011;1588;50.892;7.082;2022-09-09T07:35:15;5.43;;;1.37;;
3155;SDS011;1588;50.892;7.082;2022-09-09T07:40:17;6.77;;;1.40;;
3155;SDS011;1588;50.892;7.082;2022-09-09T07:45:22;6.87;;;1.30;;
3155;SDS011;1588;50.892;7.082;2022-09-09T07:50:25;3.50;;;1.03;;
3155;SDS011;1588;50.892;7.082;2022-09-09T07:55:28;3.40;;;1.10;;
3155;SDS011;1588;50.892;7.082;2022-09-09T08:00:30;9.30;;;1.80;;
3155;SDS011;1588;50.892;7.082;2022-09-09T08:05:35;5.53;;;1.27;;
3155;SDS011;1588;50.892;7.082;2022-09-09T08:10:40;6.40;;;1.40;;
3155;SDS011;1588;50.892;7.082;2022-09-09T08:15:42;7.57;;;1.47;;
3155;SDS011;1588;50.892;7.082;2022-09-09T08:20:46;4.23;;;1.20;;
3155;SDS011;1588;50.892;7.082;2022-09-09T08:25:48;4.37;;;1.33;;
3155;SDS011;1588;50.892;7.082;2022-09-09T08:30:53;3.37;;;1.10;;
3155;SDS011;1588;50.892;7.082;2022-09-09T08:35:57;7.80;;;1.40;;
3155;SDS011;1588;50.892;7.082;2022-09-09T08:41:03;5.87;;;1.30;;
3155;SDS011;1588;50.892;7.082;2022-09-09T08:46:32;9.80;;;1.37;;
3155;SDS011;1588;50.892;7.082;2022-09-09T08:51:46;4.50;;;0.90;;
3155;SDS011;1588;50.892;7.082;2022-09-09T08:56:51;3.23;;;1.53;;
3155;SDS011;1588;50.892;7.082;2022-09-09T09:01:59;8.60;;;1.30;;
3155;SDS011;1588;50.892;7.082;2022-09-09T09:07:21;3.50;;;1.30;;
3155;SDS011;1588;50.892;7.082;2022-09-09T09:12:32;9.23;;;1.13;;
3155;SDS011;1588;50.892;7.082;2022-09-09T09:17:40;2.50;;;1.30;;
3155;SDS011;1588;50.892;7.082;2022-09-09T09:22:46;3.90;;;1.30;;
3155;SDS011;1588;50.892;7.082;2022-09-09T09:27:53;3.80;;;1.00;;
3155;SDS011;1588;50.892;7.082;2022-09-09T09:33:02;2.93;;;0.90;;
3155;SDS011;1588;50.892;7.082;2022-09-09T09:38:11;2.57;;;1.30;;
3155;SDS011;1588;50.892;7.082;2022-09-09T09:43:19;6.17;;;1.47;;
3155;SDS011;1588;50.892;7.082;2022-09-09T09:48:25;3.40;;;1.50;;
3155;SDS011;1588;50.892;7.082;2022-09-09T09:53:30;9.03;;;1.57;;
3155;SDS011;1588;50.892;7.082;2022-09-09T09:58:37;2.10;;;0.87;;
3155;SDS011;1588;50.892;7.082;2022-09-09T10:03:51;4.10;;;1.00;;
3155;SDS011;1588;50.892;7.082;2022-09-09T10:08:55;4.00;;;1.23;;
3155;SDS011;1588;50.892;7.082;2022-09-09T10:14:00;5.67;;;1.10;;
3155;SDS011;1588;50.892;7.082;2022-09-09T10:19:13;4.20;;;1.30;;
3155;SDS011;1588;50.892;7.082;2022-09-09T10:24:25;6.47;;;1.43;;
3155;SDS011;1588;50.892;7.082;2022-09-09T10:29:42;3.00;;;0.80;;
3155;SDS011;1588;50.892;7.082;2022-09-09T10:34:56;3.27;;;1.30;;
3155;SDS011;1588;50.892;7.082;2022-09-09T10:40:11;3.03;;;0.80;;
3155;SDS011;1588;50.892;7.082;2022-09-09T10:45:26;6.20;;;1.00;;
3155;SDS011;1588;50.892;7.082;2022-09-09T10:50:50;6.57;;;1.33;;
3155;SDS011;1588;50.892;7.082;2022-09-09T10:55:59;3.47;;;1.10;;
3155;SDS011;1588;50.892;7.082;2022-09-09T11:01:09;9.63;;;1.90;;
3155;SDS011;1588;50.892;7.082;2022-09-09T11:06:17;6.70;;;1.53;;
3155;SDS011;1588;50.892;7.082;2022-09-09T11:11:27;11.90;;;1.13;;
3155;SDS011;1588;50.892;7.082;2022-09-09T11:16:34;3.20;;;1.10;;
3155;SDS011;1588;50.892;7.082;2022-09-09T11:21:43;1.30;;;0.80;;
3155;SDS011;1588;50.892;7.082;2022-09-09T11:26:49;6.40;;;1.30;;
3155;SDS011;1588;50.892;7.082;2022-09-09T11:31:58;4.33;;;1.30;;
3155;SDS011;1588;50.892;7.082;2022-09-09T11:42:44;6.23;;;1.50;;
3155;SDS011;1588;50.892;7.082;2022-09-09T11:47:52;2.67;;;1.13;;
3155;SDS011;1588;50.892;7.082;2022-09-09T11:53:14;3.83;;;1.30;;
3155;SDS011;1588;50.892;7.082;2022-09-09T11:58:24;2.80;;;1.33;;
3155;SDS011;1588;50.892;7.082;2022-09-09T12:03:34;3.80;;;0.90;;
3155;SDS011;1588;50.892;7.082;2022-09-09T12:08:41;3.40;;;1.10;;
3155;SDS011;1588;50.892;7.082;2022-09-09T12:13:53;3.03;;;1.00;;
3155;SDS011;1588;50.892;7.082;2022-09-09T12:19:02;4.17;;;1.00;;
3155;SDS011;1588;50.892;7.082;2022-09-09T12:24:07;4.00;;;0.83;;
3155;SDS011;1588;50.892;7.082;2022-09-09T12:29:16;4.27;;;1.00;;
3155;SDS011;1588;50.892;7.082;2022-09-09T12:34:32;2.40;;;0.83;;
3155;SDS011;1588;50.892;7.082;2022-09-09T12:39:40;5.90;;;1.20;;
3155;SDS011;1588;50.892;7.082;2022-09-09T12:44:55;3.93;;;1.00;;
3155;SDS011;1588;50.892;7.082;2022-09-09T12:49:58;4.90;;;0.77;;
3155;SDS011;1588;50.892;7.082;2022-09-09T12:55:02;3.57;;;1.43;;
3155;SDS011;1588;50.892;7.082;2022-09-09T13:00:11;1.80;;;0.90;;
3155;SDS011;1588;50.892;7.082;2022-09-09T13:05:18;2.73;;;1.07;;
3155;SDS011;1588;50.892;7.082;2022-09-09T13:10:24;3.00;;;1.10;;
3155;SDS011;1588;50.892;7.082;2022-09-09T13:15:30;2.60;;;0.90;;
3155;SDS011;1588;50.892;7.082;2022-09-09T13:20:33;3.10;;;0.80;;
3155;SDS011;1588;50.892;7.082;2022-09-09T13:25:35;2.00;;;0.80;;
3155;SDS011;1588;50.892;7.082;2022-09-09T13:30:40;1.50;;;1.00;;
3155;SDS011;1588;50.892;7.082;2022-09-09T13:35:46;4.13;;;1.43;;
3155;SDS011;1588;50.892;7.082;2022-09-09T13:40:54;1.07;;;0.80;;
3155;SDS011;1588;50.892;7.082;2022-09-09T13:46:02;4.03;;;1.20;;
3155;SDS011;1588;50.892;7.082;2022-09-09T13:56:27;5.63;;;1.03;;
3155;SDS011;1588;50.892;7.082;2022-09-09T14:01:31;4.63;;;0.83;;
3155;SDS011;1588;50.892;7.082;2022-09-09T14:06:35;1.97;;;0.70;;
3155;SDS011;1588;50.892;7.082;2022-09-09T14:11:38;2.77;;;0.70;;
3155;SDS011;1588;50.892;7.082;2022-09-09T14:16:43;1.70;;;1.03;;
3155;SDS011;1588;50.892;7.082;2022-09-09T14:21:45;2.50;;;0.70;;
3155;SDS011;1588;50.892;7.082;2022-09-09T14:26:48;0.80;;;0.77;;
3155;SDS011;1588;50.892;7.082;2022-09-09T14:31:51;1.57;;;0.70;;
3155;SDS011;1588;50.892;7.082;2022-09-09T14:36:53;2.37;;;0.77;;
3155;SDS011;1588;50.892;7.082;2022-09-09T14:41:56;1.67;;;0.70;;
3155;SDS011;1588;50.892;7.082;2022-09-09T14:47:00;1.00;;;0.70;;
3155;SDS011;1588;50.892;7.082;2022-09-09T14:52:02;0.93;;;0.63;;
3155;SDS011;1588;50.892;7.082;2022-09-09T14:57:05;6.63;;;0.90;;
3155;SDS011;1588;50.892;7.082;2022-09-09T15:02:09;2.90;;;1.40;;
3155;SDS011;1588;50.892;7.082;2022-09-09T15:07:14;1.20;;;1.07;;
3155;SDS011;1588;50.892;7.082;2022-09-09T15:12:17;5.00;;;1.40;;
3155;SDS011;1588;50.892;7.082;2022-09-09T15:17:20;1.13;;;0.93;;
3155;SDS011;1588;50.892;7.082;2022-09-09T15:22:25;4.67;;;1.10;;
3155;SDS011;1588;50.892;7.082;2022-09-09T15:27:27;3.23;;;1.23;;
3155;SDS011;1588;50.892;7.082;2022-09-09T15:32:33;4.50;;;1.47;;
3155;SDS011;1588;50.892;7.082;2022-09-09T15:37:35;5.50;;;2.07;;
3155;SDS011;1588;50.892;7.082;2022-09-09T15:42:37;4.13;;;2.60;;
3155;SDS011;1588;50.892;7.082;2022-09-09T15:47:41;2.47;;;1.87;;
3155;SDS011;1588;50.892;7.082;2022-09-09T15:52:54;2.60;;;1.27;;
3155;SDS011;1588;50.892;7.082;2022-09-09T15:57:56;2.53;;;0.80;;
3155;SDS011;1588;50.892;7.082;2022-09-09T16:03:00;4.10;;;0.80;;
3155;SDS011;1588;50.892;7.082;2022-09-09T16:08:02;3.90;;;1.03;;
3155;SDS011;1588;50.892;7.082;2022-09-09T16:13:04;2.80;;;1.60;;
3155;SDS011;1588;50.892;7.082;2022-09-09T16:18:08;3.47;;;1.40;;
3155;SDS011;1588;50.892;7.082;2022-09-09T16:23:10;0.90;;;0.80;;
3155;SDS011;1588;50.892;7.082;2022-09-09T16:28:12;4.00;;;1.07;;
3155;SDS011;1588;50.892;7.082;2022-09-09T16:33:16;1.53;;;0.97;;
3155;SDS011;1588;50.892;7.082;2022-09-09T16:38:18;11.33;;;0.97;;
3155;SDS011;1588;50.892;7.082;2022-09-09T16:43:39;2.10;;;0.90;;
3155;SDS011;1588;50.892;7.082;2022-09-09T16:48:43;2.63;;;1.10;;
3155;SDS011;1588;50.892;7.082;2022-09-09T16:53:47;3.97;;;1.00;;
3155;SDS011;1588;50.892;7.082;2022-09-09T16:58:49;3.33;;;1.20;;
3155;SDS011;1588;50.892;7.082;2022-09-09T17:03:54;2.53;;;1.20;;
3155;SDS011;1588;50.892;7.082;2022-09-09T17:08:58;2.20;;;1.30;;
3155;SDS011;1588;50.892;7.082;2022-09-09T17:14:20;3.53;;;1.57;;
3155;SDS011;1588;50.892;7.082;2022-09-09T17:19:26;8.80;;;2.00;;
3155;SDS011;1588;50.892;7.082;2022-09-09T17:24:28;5.50;;;2.10;;
3155;SDS011;1588;50.892;7.082;2022-09-09T17:29:31;1.30;;;1.20;;
3155;SDS011;1588;50.892;7.082;2022-09-09T17:34:37;6.47;;;1.50;;
3155;SDS011;1588;50.892;7.082;2022-09-09T17:39:39;2.73;;;1.97;;
3155;SDS011;1588;50.892;7.082;2022-09-09T17:44:42;18.90;;;2.27;;
3155;SDS011;1588;50.892;7.082;2022-09-09T17:49:45;3.13;;;1.90;;
3155;SDS011;1588;50.892;7.082;2022-09-09T17:54:48;5.67;;;2.07;;
3155;SDS011;1588;50.892;7.082;2022-09-09T17:59:50;2.90;;;1.87;;
3155;SDS011;1588;50.892;7.082;2022-09-09T18:04:54;7.93;;;2.10;;
3155;SDS011;1588;50.892;7.082;2022-09-09T18:09:56;9.00;;;2.23;;
3155;SDS011;1588;50.892;7.082;2022-09-09T18:14:59;4.63;;;2.20;;
3155;SDS011;1588;50.892;7.082;2022-09-09T18:20:03;3.77;;;2.17;;
3155;SDS011;1588;50.892;7.082;2022-09-09T18:25:05;3.33;;;2.00;;
3155;SDS011;1588;50.892;7.082;2022-09-09T18:30:18;5.60;;;2.00;;
3155;SDS011;1588;50.892;7.082;2022-09-09T18:35:21;3.77;;;1.93;;
3155;SDS011;1588;50.892;7.082;2022-09-09T18:40:24;6.77;;;2.20;;
3155;SDS011;1588;50.892;7.082;2022-09-09T18:45:26;2.53;;;1.60;;
3155;SDS011;1588;50.892;7.082;2022-09-09T18:50:30;9.70;;;1.90;;
3155;SDS011;1588;50.892;7.082;2022-09-09T18:55:33;2.07;;;1.43;;
3155;SDS011;1588;50.892;7.082;2022-09-09T19:00:55;4.93;;;1.63;;
3155;SDS011;1588;50.892;7.082;2022-09-09T19:06:01;4.03;;;1.30;;
3155;SDS011;1588;50.892;7.082;2022-09-09T19:11:04;5.60;;;1.77;;
3155;SDS011;1588;50.892;7.082;2022-09-09T19:16:09;3.23;;;1.30;;
3155;SDS011;1588;50.892;7.082;2022-09-09T19:21:14;2.60;;;1.23;;
3155;SDS011;1588;50.892;7.082;2022-09-09T19:26:18;5.07;;;1.90;;
3155;SDS011;1588;50.892;7.082;2022-09-09T19:31:20;5.23;;;1.60;;
3155;SDS011;1588;50.892;7.082;2022-09-09T19:36:24;10.60;;;1.57;;
3155;SDS011;1588;50.892;7.082;2022-09-09T19:41:29;2.93;;;1.37;;
3155;SDS011;1588;50.892;7.082;2022-09-09T19:46:33;2.80;;;1.13;;
3155;SDS011;1588;50.892;7.082;2022-09-09T19:51:38;4.20;;;1.40;;
3155;SDS011;1588;50.892;7.082;2022-09-09T19:56:41;2.40;;;1.40;;
3155;SDS011;1588;50.892;7.082;2022-09-09T20:01:43;8.60;;;1.40;;
3155;SDS011;1588;50.892;7.082;2022-09-09T20:06:47;4.03;;;1.77;;
3155;SDS011;1588;50.892;7.082;2022-09-09T20:12:05;5.77;;;1.73;;
3155;SDS011;1588;50.892;7.082;2022-09-09T20:17:08;8.07;;;1.97;;
3155;SDS011;1588;50.892;7.082;2022-09-09T20:22:11;4.87;;;1.87;;
3155;SDS011;1588;50.892;7.082;2022-09-09T20:27:14;3.90;;;1.93;;
3155;SDS011;1588;50.892;7.082;2022-09-09T20:32:16;1.73;;;1.53;;
3155;SDS011;1588;50.892;7.082;2022-09-09T20:37:19;4.83;;;1.50;;
3155;SDS011;1588;50.892;7.082;2022-09-09T20:42:23;5.37;;;2.10;;
3155;SDS011;1588;50.892;7.082;2022-09-09T20:47:44;2.70;;;1.93;;
3155;SDS011;1588;50.892;7.082;2022-09-09T20:53:07;4.27;;;2.47;;
3155;SDS011;1588;50.892;7.082;2022-09-09T20:58:11;4.20;;;1.83;;
3155;SDS011;1588;50.892;7.082;2022-09-09T21:03:13;10.00;;;2.40;;
3155;SDS011;1588;50.892;7.082;2022-09-09T21:08:18;2.80;;;1.87;;
3155;SDS011;1588;50.892;7.082;2022-09-09T21:13:22;1.43;;;1.33;;
3155;SDS011;1588;50.892;7.082;2022-09-09T21:18:25;5.37;;;1.97;;
3155;SDS011;1588;50.892;7.082;2022-09-09T21:23:30;7.87;;;2.50;;
3155;SDS011;1588;50.892;7.082;2022-09-09T21:28:32;7.13;;;2.00;;
3155;SDS011;1588;50.892;7.082;2022-09-09T21:33:35;5.00;;;1.77;;
3155;SDS011;1588;50.892;7.082;2022-09-09T21:38:39;2.47;;;1.70;;
3155;SDS011;1588;50.892;7.082;2022-09-09T21:43:43;9.33;;;1.87;;
3155;SDS011;1588;50.892;7.082;2022-09-09T21:48:46;5.27;;;1.80;;
3155;SDS011;1588;50.892;7.082;2022-09-09T21:53:52;3.60;;;1.60;;
3155;SDS011;1588;50.892;7.082;2022-09-09T21:58:56;3.33;;;2.13;;
3155;SDS011;1588;50.892;7.082;2022-09-09T22:04:01;4.80;;;2.10;;
3155;SDS011;1588;50.892;7.082;2022-09-09T22:09:05;4.20;;;1.80;;
3155;SDS011;1588;50.892;7.082;2022-09-09T22:14:28;3.63;;;1.93;;
3155;SDS011;1588;50.892;7.082;2022-09-09T22:19:30;5.30;;;1.70;;
3155;SDS011;1588;50.892;7.082;2022-09-09T22:24:34;6.60;;;2.00;;
3155;SDS011;1588;50.892;7.082;2022-09-09T22:29:37;2.20;;;1.43;;
3155;SDS011;1588;50.892;7.082;2022-09-09T22:34:40;4.30;;;1.57;;
3155;SDS011;1588;50.892;7.082;2022-09-09T22:39:43;8.10;;;1.80;;
3155;SDS011;1588;50.892;7.082;2022-09-09T22:44:46;5.30;;;1.80;;
3155;SDS011;1588;50.892;7.082;2022-09-09T22:49:48;6.00;;;1.67;;
3155;SDS011;1588;50.892;7.082;2022-09-09T22:54:52;4.20;;;2.33;;
3155;SDS011;1588;50.892;7.082;2022-09-09T22:59:55;3.80;;;2.60;;
3155;SDS011;1588;50.892;7.082;2022-09-09T23:04:58;3.07;;;2.03;;
3155;SDS011;1588;50.892;7.082;2022-09-09T23:10:03;6.33;;;2.00;;
3155;SDS011;1588;50.892;7.082;2022-09-09T23:15:06;6.87;;;2.13;;
3155;SDS011;1588;50.892;7.082;2022-09-09T23:20:09;7.47;;;1.87;;
3155;SDS011;1588;50.892;7.082;2022-09-09T23:25:13;4.60;;;1.97;;
3155;SDS011;1588;50.892;7.082;2022-09-09T23:30:16;5.50;;;2.10;;
3155;SDS011;1588;50.892;7.082;2022-09-09T23:35:18;4.20;;;2.13;;
3155;SDS011;1588;50.892;7.082;2022-09-09T23:40:22;4.20;;;1.80;;
3155;SDS011;1588;50.892;7.082;2022-09-09T23:45:24;2.30;;;1.60;;
3155;SDS011;1588;50.892;7.082;2022-09-09T23:50:28;4.60;;;2.10;;
3155;SDS011;1588;50.892;7.082;2022-09-09T23:55:31;3.03;;;1.80;;
